sensor_id;sensor_type;location;lat;lon;timestamp;P1;durP1;ratioP1;P2;durP2;ratioP2
4915;SDS011;70796;52.406;13.230;2023-08-01T00:01:36;12.80;;;5.40;;
4915;SDS011;70796;52.406;13.230;2023-08-01T00:04:03;5.97;;;4.10;;
4915;SDS011;70796;52.406;13.230;2023-08-01T00:06:29;10.03;;;4.80;;
4915;SDS011;70796;52.406;13.230;2023-08-01T00:08:55;11.67;;;4.60;;
4915;SDS011;70796;52.406;13.230;2023-08-01T00:11:22;11.47;;;5.07;;
4915;SDS011;70796;52.406;13.230;2023-08-01T00:13:48;5.60;;;3.90;;
4915;SDS011;70796;52.406;13.230;2023-08-01T00:16:15;7.37;;;3.90;;
4915;SDS011;70796;52.406;13.230;2023-08-01T00:18:41;4.97;;;3.40;;
4915;SDS011;70796;52.406;13.230;2023-08-01T00:21:08;7.13;;;4.23;;
4915;SDS011;70796;52.406;13.230;2023-08-01T00:23:37;8.03;;;3.70;;
4915;SDS011;70796;52.406;13.230;2023-08-01T00:26:04;12.27;;;4.27;;
4915;SDS011;70796;52.406;13.230;2023-08-01T00:28:30;4.80;;;3.33;;
4915;SDS011;70796;52.406;13.230;2023-08-01T00:31:07;5.13;;;3.73;;
4915;SDS011;70796;52.406;13.230;2023-08-01T00:33:35;7.23;;;4.00;;
4915;SDS011;70796;52.406;13.230;2023-08-01T00:36:02;8.63;;;3.60;;
4915;SDS011;70796;52.406;13.230;2023-08-01T00:38:28;6.63;;;3.43;;
4915;SDS011;70796;52.406;13.230;2023-08-01T00:40:55;10.20;;;4.00;;
4915;SDS011;70796;52.406;13.230;2023-08-01T00:43:21;4.33;;;3.17;;
4915;SDS011;70796;52.406;13.230;2023-08-01T00:45:48;5.83;;;3.50;;
4915;SDS011;70796;52.406;13.230;2023-08-01T00:48:14;4.73;;;3.37;;
4915;SDS011;70796;52.406;13.230;2023-08-01T00:50:41;10.10;;;4.03;;
4915;SDS011;70796;52.406;13.230;2023-08-01T00:53:07;5.77;;;3.87;;
4915;SDS011;70796;52.406;13.230;2023-08-01T00:55:34;4.90;;;3.50;;
4915;SDS011;70796;52.406;13.230;2023-08-01T00:58:02;8.00;;;3.90;;
4915;SDS011;70796;52.406;13.230;2023-08-01T01:00:29;5.70;;;3.93;;
4915;SDS011;70796;52.406;13.230;2023-08-01T01:02:56;8.67;;;5.00;;
4915;SDS011;70796;52.406;13.230;2023-08-01T01:05:23;6.10;;;3.80;;
4915;SDS011;70796;52.406;13.230;2023-08-01T01:07:51;8.40;;;4.40;;
4915;SDS011;70796;52.406;13.230;2023-08-01T01:10:18;7.53;;;4.07;;
4915;SDS011;70796;52.406;13.230;2023-08-01T01:12:44;7.20;;;3.80;;
4915;SDS011;70796;52.406;13.230;2023-08-01T01:15:11;10.43;;;4.20;;
4915;SDS011;70796;52.406;13.230;2023-08-01T01:17:37;6.03;;;4.57;;
4915;SDS011;70796;52.406;13.230;2023-08-01T01:20:04;8.47;;;4.23;;
4915;SDS011;70796;52.406;13.230;2023-08-01T01:22:30;8.73;;;4.80;;
4915;SDS011;70796;52.406;13.230;2023-08-01T01:24:57;9.50;;;5.07;;
4915;SDS011;70796;52.406;13.230;2023-08-01T01:27:24;7.13;;;4.30;;
4915;SDS011;70796;52.406;13.230;2023-08-01T01:29:51;6.33;;;4.27;;
4915;SDS011;70796;52.406;13.230;2023-08-01T01:32:17;9.17;;;4.87;;
4915;SDS011;70796;52.406;13.230;2023-08-01T01:34:44;10.23;;;5.00;;
4915;SDS011;70796;52.406;13.230;2023-08-01T01:37:11;6.80;;;4.50;;
4915;SDS011;70796;52.406;13.230;2023-08-01T01:39:37;8.30;;;5.20;;
4915;SDS011;70796;52.406;13.230;2023-08-01T01:42:04;7.87;;;4.93;;
4915;SDS011;70796;52.406;13.230;2023-08-01T01:44:31;9.90;;;5.37;;
4915;SDS011;70796;52.406;13.230;2023-08-01T01:46:57;7.57;;;4.87;;
4915;SDS011;70796;52.406;13.230;2023-08-01T01:49:23;9.20;;;5.10;;
4915;SDS011;70796;52.406;13.230;2023-08-01T01:51:52;9.10;;;4.70;;
4915;SDS011;70796;52.406;13.230;2023-08-01T01:54:18;9.50;;;5.27;;
4915;SDS011;70796;52.406;13.230;2023-08-01T01:56:45;11.37;;;4.97;;
4915;SDS011;70796;52.406;13.230;2023-08-01T01:59:11;8.60;;;4.97;;
4915;SDS011;70796;52.406;13.230;2023-08-01T02:01:38;5.90;;;4.43;;
4915;SDS011;70796;52.406;13.230;2023-08-01T02:04:04;7.33;;;4.93;;
4915;SDS011;70796;52.406;13.230;2023-08-01T02:06:31;11.27;;;4.97;;
4915;SDS011;70796;52.406;13.230;2023-08-01T02:08:57;10.40;;;5.53;;
4915;SDS011;70796;52.406;13.230;2023-08-01T02:11:28;9.80;;;5.73;;
4915;SDS011;70796;52.406;13.230;2023-08-01T02:13:54;8.93;;;5.37;;
4915;SDS011;70796;52.406;13.230;2023-08-01T02:16:21;9.40;;;4.70;;
4915;SDS011;70796;52.406;13.230;2023-08-01T02:18:47;7.77;;;5.07;;
4915;SDS011;70796;52.406;13.230;2023-08-01T02:21:13;9.80;;;5.10;;
4915;SDS011;70796;52.406;13.230;2023-08-01T02:23:40;9.57;;;5.30;;
4915;SDS011;70796;52.406;13.230;2023-08-01T02:26:06;7.60;;;4.97;;
4915;SDS011;70796;52.406;13.230;2023-08-01T02:28:34;14.80;;;6.10;;
4915;SDS011;70796;52.406;13.230;2023-08-01T02:31:00;7.10;;;5.10;;
4915;SDS011;70796;52.406;13.230;2023-08-01T02:33:27;12.03;;;5.40;;
4915;SDS011;70796;52.406;13.230;2023-08-01T02:35:53;8.03;;;5.13;;
4915;SDS011;70796;52.406;13.230;2023-08-01T02:38:20;11.50;;;5.80;;
4915;SDS011;70796;52.406;13.230;2023-08-01T02:40:47;9.53;;;5.20;;
4915;SDS011;70796;52.406;13.230;2023-08-01T02:43:13;13.10;;;6.17;;
4915;SDS011;70796;52.406;13.230;2023-08-01T02:45:41;12.53;;;5.97;;
4915;SDS011;70796;52.406;13.230;2023-08-01T02:48:07;9.37;;;5.20;;
4915;SDS011;70796;52.406;13.230;2023-08-01T02:50:34;9.50;;;5.80;;
4915;SDS011;70796;52.406;13.230;2023-08-01T02:53:00;8.90;;;5.60;;
4915;SDS011;70796;52.406;13.230;2023-08-01T02:55:26;7.80;;;5.37;;
4915;SDS011;70796;52.406;13.230;2023-08-01T02:57:53;8.60;;;5.40;;
4915;SDS011;70796;52.406;13.230;2023-08-01T03:00:19;9.70;;;5.40;;
4915;SDS011;70796;52.406;13.230;2023-08-01T03:02:46;7.80;;;6.13;;
4915;SDS011;70796;52.406;13.230;2023-08-01T03:05:13;8.77;;;5.93;;
4915;SDS011;70796;52.406;13.230;2023-08-01T03:07:40;7.70;;;5.40;;
4915;SDS011;70796;52.406;13.230;2023-08-01T03:10:06;8.93;;;5.50;;
4915;SDS011;70796;52.406;13.230;2023-08-01T03:12:35;14.43;;;5.07;;
4915;SDS011;70796;52.406;13.230;2023-08-01T03:15:01;7.90;;;5.47;;
4915;SDS011;70796;52.406;13.230;2023-08-01T03:17:28;10.30;;;5.80;;
4915;SDS011;70796;52.406;13.230;2023-08-01T03:19:54;7.50;;;5.43;;
4915;SDS011;70796;52.406;13.230;2023-08-01T03:22:21;7.97;;;5.03;;
4915;SDS011;70796;52.406;13.230;2023-08-01T03:24:48;7.57;;;6.00;;
4915;SDS011;70796;52.406;13.230;2023-08-01T03:27:15;5.07;;;4.30;;
4915;SDS011;70796;52.406;13.230;2023-08-01T03:29:41;8.10;;;5.90;;
4915;SDS011;70796;52.406;13.230;2023-08-01T03:32:08;9.37;;;5.40;;
4915;SDS011;70796;52.406;13.230;2023-08-01T03:34:34;9.63;;;4.77;;
4915;SDS011;70796;52.406;13.230;2023-08-01T03:37:01;6.77;;;5.03;;
4915;SDS011;70796;52.406;13.230;2023-08-01T03:39:27;14.63;;;5.70;;
4915;SDS011;70796;52.406;13.230;2023-08-01T03:41:53;9.67;;;5.43;;
4915;SDS011;70796;52.406;13.230;2023-08-01T03:44:20;7.33;;;4.30;;
4915;SDS011;70796;52.406;13.230;2023-08-01T03:46:46;9.23;;;5.47;;
4915;SDS011;70796;52.406;13.230;2023-08-01T03:49:13;7.57;;;4.90;;
4915;SDS011;70796;52.406;13.230;2023-08-01T03:51:40;6.90;;;4.77;;
4915;SDS011;70796;52.406;13.230;2023-08-01T03:54:06;7.80;;;5.23;;
4915;SDS011;70796;52.406;13.230;2023-08-01T03:56:39;15.87;;;5.27;;
4915;SDS011;70796;52.406;13.230;2023-08-01T03:59:12;7.80;;;5.27;;
4915;SDS011;70796;52.406;13.230;2023-08-01T04:01:39;10.20;;;4.30;;
4915;SDS011;70796;52.406;13.230;2023-08-01T04:04:06;7.23;;;4.40;;
4915;SDS011;70796;52.406;13.230;2023-08-01T04:06:33;8.77;;;4.30;;
4915;SDS011;70796;52.406;13.230;2023-08-01T04:08:59;7.57;;;4.60;;
4915;SDS011;70796;52.406;13.230;2023-08-01T04:11:26;7.20;;;3.90;;
4915;SDS011;70796;52.406;13.230;2023-08-01T04:13:53;6.33;;;3.80;;
4915;SDS011;70796;52.406;13.230;2023-08-01T04:16:19;7.47;;;4.03;;
4915;SDS011;70796;52.406;13.230;2023-08-01T04:18:45;9.07;;;4.20;;
4915;SDS011;70796;52.406;13.230;2023-08-01T04:21:13;7.37;;;4.20;;
4915;SDS011;70796;52.406;13.230;2023-08-01T04:23:39;6.87;;;4.03;;
4915;SDS011;70796;52.406;13.230;2023-08-01T04:26:05;6.33;;;3.37;;
4915;SDS011;70796;52.406;13.230;2023-08-01T04:28:32;6.20;;;3.43;;
4915;SDS011;70796;52.406;13.230;2023-08-01T04:30:59;6.87;;;4.00;;
4915;SDS011;70796;52.406;13.230;2023-08-01T04:33:25;3.90;;;3.50;;
4915;SDS011;70796;52.406;13.230;2023-08-01T04:35:52;4.70;;;3.00;;
4915;SDS011;70796;52.406;13.230;2023-08-01T04:38:18;12.90;;;3.77;;
4915;SDS011;70796;52.406;13.230;2023-08-01T04:40:45;8.13;;;3.93;;
4915;SDS011;70796;52.406;13.230;2023-08-01T04:43:12;6.70;;;3.50;;
4915;SDS011;70796;52.406;13.230;2023-08-01T04:45:38;6.00;;;4.13;;
4915;SDS011;70796;52.406;13.230;2023-08-01T04:48:04;3.70;;;3.10;;
4915;SDS011;70796;52.406;13.230;2023-08-01T04:50:31;8.40;;;4.20;;
4915;SDS011;70796;52.406;13.230;2023-08-01T04:52:57;5.00;;;3.70;;
4915;SDS011;70796;52.406;13.230;2023-08-01T04:55:24;5.97;;;3.63;;
4915;SDS011;70796;52.406;13.230;2023-08-01T04:57:50;8.30;;;3.77;;
4915;SDS011;70796;52.406;13.230;2023-08-01T05:00:16;8.30;;;4.10;;
4915;SDS011;70796;52.406;13.230;2023-08-01T05:02:43;4.57;;;3.63;;
4915;SDS011;70796;52.406;13.230;2023-08-01T05:05:09;5.70;;;3.10;;
4915;SDS011;70796;52.406;13.230;2023-08-01T05:07:36;5.17;;;3.50;;
4915;SDS011;70796;52.406;13.230;2023-08-01T05:10:02;5.70;;;3.90;;
4915;SDS011;70796;52.406;13.230;2023-08-01T05:12:28;4.37;;;3.43;;
4915;SDS011;70796;52.406;13.230;2023-08-01T05:14:55;6.33;;;4.03;;
4915;SDS011;70796;52.406;13.230;2023-08-01T05:17:21;6.97;;;3.93;;
4915;SDS011;70796;52.406;13.230;2023-08-01T05:19:48;5.23;;;4.03;;
4915;SDS011;70796;52.406;13.230;2023-08-01T05:22:14;4.03;;;3.33;;
4915;SDS011;70796;52.406;13.230;2023-08-01T05:24:41;6.63;;;3.37;;
4915;SDS011;70796;52.406;13.230;2023-08-01T05:27:07;6.20;;;3.73;;
4915;SDS011;70796;52.406;13.230;2023-08-01T05:29:33;5.03;;;3.30;;
4915;SDS011;70796;52.406;13.230;2023-08-01T05:32:00;6.13;;;3.27;;
4915;SDS011;70796;52.406;13.230;2023-08-01T05:34:26;6.53;;;3.80;;
4915;SDS011;70796;52.406;13.230;2023-08-01T05:36:52;9.93;;;3.30;;
4915;SDS011;70796;52.406;13.230;2023-08-01T05:39:19;6.57;;;3.50;;
4915;SDS011;70796;52.406;13.230;2023-08-01T05:41:45;8.27;;;4.40;;
4915;SDS011;70796;52.406;13.230;2023-08-01T05:44:11;5.67;;;4.00;;
4915;SDS011;70796;52.406;13.230;2023-08-01T05:46:38;4.17;;;3.20;;
4915;SDS011;70796;52.406;13.230;2023-08-01T05:49:05;5.63;;;3.70;;
4915;SDS011;70796;52.406;13.230;2023-08-01T05:51:31;3.40;;;3.10;;
4915;SDS011;70796;52.406;13.230;2023-08-01T05:53:57;6.67;;;3.40;;
4915;SDS011;70796;52.406;13.230;2023-08-01T05:56:24;5.67;;;3.70;;
4915;SDS011;70796;52.406;13.230;2023-08-01T05:58:50;8.73;;;3.50;;
4915;SDS011;70796;52.406;13.230;2023-08-01T06:01:17;4.43;;;3.03;;
4915;SDS011;70796;52.406;13.230;2023-08-01T06:03:44;6.40;;;3.67;;
4915;SDS011;70796;52.406;13.230;2023-08-01T06:06:10;5.50;;;2.93;;
4915;SDS011;70796;52.406;13.230;2023-08-01T06:08:36;12.70;;;3.40;;
4915;SDS011;70796;52.406;13.230;2023-08-01T06:11:03;5.23;;;3.33;;
4915;SDS011;70796;52.406;13.230;2023-08-01T06:13:30;3.33;;;2.90;;
4915;SDS011;70796;52.406;13.230;2023-08-01T06:15:56;7.67;;;3.47;;
4915;SDS011;70796;52.406;13.230;2023-08-01T06:18:23;5.10;;;3.10;;
4915;SDS011;70796;52.406;13.230;2023-08-01T06:20:49;4.73;;;3.27;;
4915;SDS011;70796;52.406;13.230;2023-08-01T06:23:15;5.97;;;3.27;;
4915;SDS011;70796;52.406;13.230;2023-08-01T06:25:42;6.93;;;3.20;;
4915;SDS011;70796;52.406;13.230;2023-08-01T06:28:08;6.00;;;3.80;;
4915;SDS011;70796;52.406;13.230;2023-08-01T06:30:34;4.30;;;3.23;;
4915;SDS011;70796;52.406;13.230;2023-08-01T06:33:01;4.80;;;3.20;;
4915;SDS011;70796;52.406;13.230;2023-08-01T06:35:27;5.83;;;3.17;;
4915;SDS011;70796;52.406;13.230;2023-08-01T06:37:54;4.43;;;3.30;;
4915;SDS011;70796;52.406;13.230;2023-08-01T06:40:21;5.20;;;3.30;;
4915;SDS011;70796;52.406;13.230;2023-08-01T06:42:47;4.73;;;2.67;;
4915;SDS011;70796;52.406;13.230;2023-08-01T06:45:13;6.00;;;2.80;;
4915;SDS011;70796;52.406;13.230;2023-08-01T06:47:40;4.20;;;3.10;;
4915;SDS011;70796;52.406;13.230;2023-08-01T06:50:06;4.23;;;3.23;;
4915;SDS011;70796;52.406;13.230;2023-08-01T06:52:34;4.33;;;3.30;;
4915;SDS011;70796;52.406;13.230;2023-08-01T06:55:01;7.93;;;3.27;;
4915;SDS011;70796;52.406;13.230;2023-08-01T06:57:28;10.33;;;3.20;;
4915;SDS011;70796;52.406;13.230;2023-08-01T06:59:54;4.87;;;2.80;;
4915;SDS011;70796;52.406;13.230;2023-08-01T07:02:21;3.43;;;2.87;;
4915;SDS011;70796;52.406;13.230;2023-08-01T07:04:47;5.43;;;3.37;;
4915;SDS011;70796;52.406;13.230;2023-08-01T07:07:13;8.23;;;2.90;;
4915;SDS011;70796;52.406;13.230;2023-08-01T07:09:40;3.47;;;2.93;;
4915;SDS011;70796;52.406;13.230;2023-08-01T07:12:06;4.40;;;2.83;;
4915;SDS011;70796;52.406;13.230;2023-08-01T07:14:33;3.83;;;2.80;;
4915;SDS011;70796;52.406;13.230;2023-08-01T07:16:59;3.90;;;2.90;;
4915;SDS011;70796;52.406;13.230;2023-08-01T07:19:26;5.20;;;3.00;;
4915;SDS011;70796;52.406;13.230;2023-08-01T07:21:52;6.40;;;2.50;;
4915;SDS011;70796;52.406;13.230;2023-08-01T07:24:19;5.60;;;2.87;;
4915;SDS011;70796;52.406;13.230;2023-08-01T07:26:45;3.67;;;2.50;;
4915;SDS011;70796;52.406;13.230;2023-08-01T07:29:12;4.20;;;2.70;;
4915;SDS011;70796;52.406;13.230;2023-08-01T07:31:42;3.03;;;2.30;;
4915;SDS011;70796;52.406;13.230;2023-08-01T07:34:12;2.33;;;2.13;;
4915;SDS011;70796;52.406;13.230;2023-08-01T07:36:38;3.83;;;2.67;;
4915;SDS011;70796;52.406;13.230;2023-08-01T07:39:05;3.53;;;2.87;;
4915;SDS011;70796;52.406;13.230;2023-08-01T07:41:31;2.37;;;2.17;;
4915;SDS011;70796;52.406;13.230;2023-08-01T07:44:00;2.77;;;2.20;;
4915;SDS011;70796;52.406;13.230;2023-08-01T07:46:27;3.50;;;2.43;;
4915;SDS011;70796;52.406;13.230;2023-08-01T07:48:54;4.33;;;2.50;;
4915;SDS011;70796;52.406;13.230;2023-08-01T07:51:20;3.40;;;2.13;;
4915;SDS011;70796;52.406;13.230;2023-08-01T07:53:47;3.77;;;2.47;;
4915;SDS011;70796;52.406;13.230;2023-08-01T07:56:18;3.87;;;2.37;;
4915;SDS011;70796;52.406;13.230;2023-08-01T07:58:44;5.30;;;2.43;;
4915;SDS011;70796;52.406;13.230;2023-08-01T08:01:10;3.67;;;2.10;;
4915;SDS011;70796;52.406;13.230;2023-08-01T08:03:37;4.00;;;2.03;;
4915;SDS011;70796;52.406;13.230;2023-08-01T08:06:04;2.47;;;2.10;;
4915;SDS011;70796;52.406;13.230;2023-08-01T08:08:31;2.03;;;1.80;;
4915;SDS011;70796;52.406;13.230;2023-08-01T08:10:59;2.27;;;2.07;;
4915;SDS011;70796;52.406;13.230;2023-08-01T08:13:27;2.30;;;2.10;;
4915;SDS011;70796;52.406;13.230;2023-08-01T08:15:57;2.83;;;2.07;;
4915;SDS011;70796;52.406;13.230;2023-08-01T08:18:24;1.90;;;1.80;;
4915;SDS011;70796;52.406;13.230;2023-08-01T08:20:50;2.13;;;1.90;;
4915;SDS011;70796;52.406;13.230;2023-08-01T08:23:17;2.40;;;1.90;;
4915;SDS011;70796;52.406;13.230;2023-08-01T08:25:43;1.87;;;1.50;;
4915;SDS011;70796;52.406;13.230;2023-08-01T08:28:11;2.87;;;1.67;;
4915;SDS011;70796;52.406;13.230;2023-08-01T08:30:38;4.17;;;1.67;;
4915;SDS011;70796;52.406;13.230;2023-08-01T08:33:04;2.37;;;1.60;;
4915;SDS011;70796;52.406;13.230;2023-08-01T08:35:33;2.20;;;1.83;;
4915;SDS011;70796;52.406;13.230;2023-08-01T08:38:01;3.17;;;1.67;;
4915;SDS011;70796;52.406;13.230;2023-08-01T08:40:28;1.47;;;1.37;;
4915;SDS011;70796;52.406;13.230;2023-08-01T08:42:55;1.70;;;1.50;;
4915;SDS011;70796;52.406;13.230;2023-08-01T08:45:22;2.30;;;1.33;;
4915;SDS011;70796;52.406;13.230;2023-08-01T08:47:50;1.57;;;1.43;;
4915;SDS011;70796;52.406;13.230;2023-08-01T08:50:18;1.30;;;1.20;;
4915;SDS011;70796;52.406;13.230;2023-08-01T08:52:45;1.57;;;1.10;;
4915;SDS011;70796;52.406;13.230;2023-08-01T08:55:12;2.53;;;1.30;;
4915;SDS011;70796;52.406;13.230;2023-08-01T08:57:38;2.80;;;1.23;;
4915;SDS011;70796;52.406;13.230;2023-08-01T09:00:06;1.17;;;1.07;;
4915;SDS011;70796;52.406;13.230;2023-08-01T09:02:32;1.20;;;1.10;;
4915;SDS011;70796;52.406;13.230;2023-08-01T09:04:59;1.27;;;1.17;;
4915;SDS011;70796;52.406;13.230;2023-08-01T09:07:27;2.00;;;1.20;;
4915;SDS011;70796;52.406;13.230;2023-08-01T09:09:55;1.57;;;1.17;;
4915;SDS011;70796;52.406;13.230;2023-08-01T09:12:21;1.30;;;1.20;;
4915;SDS011;70796;52.406;13.230;2023-08-01T09:14:49;1.20;;;1.10;;
4915;SDS011;70796;52.406;13.230;2023-08-01T09:17:16;1.30;;;1.20;;
4915;SDS011;70796;52.406;13.230;2023-08-01T09:19:46;4.43;;;1.30;;
4915;SDS011;70796;52.406;13.230;2023-08-01T09:22:13;1.30;;;1.00;;
4915;SDS011;70796;52.406;13.230;2023-08-01T09:24:50;2.73;;;1.10;;
4915;SDS011;70796;52.406;13.230;2023-08-01T09:27:16;1.30;;;1.10;;
4915;SDS011;70796;52.406;13.230;2023-08-01T09:29:42;1.10;;;1.00;;
4915;SDS011;70796;52.406;13.230;2023-08-01T09:32:13;1.20;;;1.00;;
4915;SDS011;70796;52.406;13.230;2023-08-01T09:34:40;1.00;;;0.90;;
4915;SDS011;70796;52.406;13.230;2023-08-01T09:37:07;1.20;;;1.10;;
4915;SDS011;70796;52.406;13.230;2023-08-01T09:39:34;1.17;;;1.00;;
4915;SDS011;70796;52.406;13.230;2023-08-01T09:42:01;1.00;;;0.80;;
4915;SDS011;70796;52.406;13.230;2023-08-01T09:44:28;2.37;;;0.90;;
4915;SDS011;70796;52.406;13.230;2023-08-01T09:47:04;1.67;;;1.00;;
4915;SDS011;70796;52.406;13.230;2023-08-01T09:49:31;2.30;;;1.20;;
4915;SDS011;70796;52.406;13.230;2023-08-01T09:51:58;14.27;;;0.93;;
4915;SDS011;70796;52.406;13.230;2023-08-01T09:54:26;4.30;;;1.13;;
4915;SDS011;70796;52.406;13.230;2023-08-01T09:56:54;1.30;;;1.00;;
4915;SDS011;70796;52.406;13.230;2023-08-01T09:59:24;0.80;;;0.80;;
4915;SDS011;70796;52.406;13.230;2023-08-01T10:01:53;2.60;;;1.27;;
4915;SDS011;70796;52.406;13.230;2023-08-01T10:04:20;3.47;;;0.93;;
4915;SDS011;70796;52.406;13.230;2023-08-01T10:06:49;1.30;;;1.00;;
4915;SDS011;70796;52.406;13.230;2023-08-01T10:09:19;3.20;;;1.00;;
4915;SDS011;70796;52.406;13.230;2023-08-01T10:11:47;1.00;;;0.90;;
4915;SDS011;70796;52.406;13.230;2023-08-01T10:14:15;1.37;;;0.93;;
4915;SDS011;70796;52.406;13.230;2023-08-01T10:16:42;0.83;;;0.83;;
4915;SDS011;70796;52.406;13.230;2023-08-01T10:19:09;0.90;;;0.90;;
4915;SDS011;70796;52.406;13.230;2023-08-01T10:21:38;3.27;;;1.00;;
4915;SDS011;70796;52.406;13.230;2023-08-01T10:24:05;0.90;;;0.70;;
4915;SDS011;70796;52.406;13.230;2023-08-01T10:26:33;1.87;;;1.00;;
4915;SDS011;70796;52.406;13.230;2023-08-01T10:29:00;1.10;;;0.80;;
4915;SDS011;70796;52.406;13.230;2023-08-01T10:31:28;1.83;;;0.80;;
4915;SDS011;70796;52.406;13.230;2023-08-01T10:34:03;1.13;;;0.90;;
4915;SDS011;70796;52.406;13.230;2023-08-01T10:36:30;1.67;;;0.80;;
4915;SDS011;70796;52.406;13.230;2023-08-01T10:38:58;0.90;;;0.90;;
4915;SDS011;70796;52.406;13.230;2023-08-01T10:44:04;1.93;;;1.00;;
4915;SDS011;70796;52.406;13.230;2023-08-01T10:46:44;1.03;;;0.93;;
4915;SDS011;70796;52.406;13.230;2023-08-01T10:49:10;1.80;;;1.00;;
4915;SDS011;70796;52.406;13.230;2023-08-01T10:51:37;1.17;;;1.07;;
4915;SDS011;70796;52.406;13.230;2023-08-01T10:54:04;1.37;;;1.27;;
4915;SDS011;70796;52.406;13.230;2023-08-01T10:56:30;1.43;;;1.20;;
4915;SDS011;70796;52.406;13.230;2023-08-01T10:58:57;4.93;;;1.30;;
4915;SDS011;70796;52.406;13.230;2023-08-01T11:01:24;0.93;;;0.83;;
4915;SDS011;70796;52.406;13.230;2023-08-01T11:03:52;1.30;;;1.20;;
4915;SDS011;70796;52.406;13.230;2023-08-01T11:06:19;1.17;;;1.07;;
4915;SDS011;70796;52.406;13.230;2023-08-01T11:08:46;1.73;;;1.00;;
4915;SDS011;70796;52.406;13.230;2023-08-01T11:11:13;1.97;;;0.97;;
4915;SDS011;70796;52.406;13.230;2023-08-01T11:13:41;1.20;;;1.10;;
4915;SDS011;70796;52.406;13.230;2023-08-01T11:16:07;2.50;;;1.23;;
4915;SDS011;70796;52.406;13.230;2023-08-01T11:18:41;2.70;;;1.50;;
4915;SDS011;70796;52.406;13.230;2023-08-01T11:21:08;2.57;;;1.53;;
4915;SDS011;70796;52.406;13.230;2023-08-01T11:23:34;1.80;;;1.67;;
4915;SDS011;70796;52.406;13.230;2023-08-01T11:26:08;1.80;;;1.70;;
4915;SDS011;70796;52.406;13.230;2023-08-01T11:28:35;3.00;;;1.43;;
4915;SDS011;70796;52.406;13.230;2023-08-01T11:31:09;2.53;;;1.70;;
4915;SDS011;70796;52.406;13.230;2023-08-01T11:33:36;3.13;;;1.90;;
4915;SDS011;70796;52.406;13.230;2023-08-01T11:36:03;3.93;;;2.10;;
4915;SDS011;70796;52.406;13.230;2023-08-01T11:38:30;4.73;;;2.00;;
4915;SDS011;70796;52.406;13.230;2023-08-01T11:40:57;4.50;;;2.47;;
4915;SDS011;70796;52.406;13.230;2023-08-01T11:43:23;3.97;;;2.67;;
4915;SDS011;70796;52.406;13.230;2023-08-01T11:45:51;2.47;;;2.27;;
4915;SDS011;70796;52.406;13.230;2023-08-01T11:48:18;2.53;;;2.23;;
4915;SDS011;70796;52.406;13.230;2023-08-01T11:50:45;2.70;;;2.10;;
4915;SDS011;70796;52.406;13.230;2023-08-01T11:53:21;6.33;;;3.13;;
4915;SDS011;70796;52.406;13.230;2023-08-01T11:55:51;2.70;;;2.30;;
4915;SDS011;70796;52.406;13.230;2023-08-01T11:58:31;4.93;;;2.80;;
4915;SDS011;70796;52.406;13.230;2023-08-01T12:03:28;4.50;;;2.60;;
4915;SDS011;70796;52.406;13.230;2023-08-01T12:06:04;3.23;;;2.90;;
4915;SDS011;70796;52.406;13.230;2023-08-01T12:08:31;5.20;;;2.83;;
4915;SDS011;70796;52.406;13.230;2023-08-01T12:10:58;5.30;;;2.93;;
4915;SDS011;70796;52.406;13.230;2023-08-01T12:13:25;5.40;;;2.73;;
4915;SDS011;70796;52.406;13.230;2023-08-01T12:15:52;7.03;;;3.33;;
4915;SDS011;70796;52.406;13.230;2023-08-01T12:18:23;6.33;;;3.10;;
4915;SDS011;70796;52.406;13.230;2023-08-01T12:21:11;7.33;;;2.30;;
4915;SDS011;70796;52.406;13.230;2023-08-01T12:23:39;3.80;;;2.90;;
4915;SDS011;70796;52.406;13.230;2023-08-01T12:26:06;3.97;;;2.90;;
4915;SDS011;70796;52.406;13.230;2023-08-01T12:28:35;6.23;;;2.97;;
4915;SDS011;70796;52.406;13.230;2023-08-01T12:31:02;4.20;;;2.50;;
4915;SDS011;70796;52.406;13.230;2023-08-01T12:33:30;5.23;;;2.80;;
4915;SDS011;70796;52.406;13.230;2023-08-01T12:35:57;3.70;;;2.60;;
4915;SDS011;70796;52.406;13.230;2023-08-01T12:38:24;10.93;;;3.53;;
4915;SDS011;70796;52.406;13.230;2023-08-01T12:40:51;4.30;;;2.60;;
4915;SDS011;70796;52.406;13.230;2023-08-01T12:43:17;3.57;;;2.57;;
4915;SDS011;70796;52.406;13.230;2023-08-01T12:45:44;3.37;;;2.57;;
4915;SDS011;70796;52.406;13.230;2023-08-01T12:48:12;5.80;;;3.03;;
4915;SDS011;70796;52.406;13.230;2023-08-01T12:50:40;6.43;;;3.00;;
4915;SDS011;70796;52.406;13.230;2023-08-01T12:53:09;5.57;;;2.90;;
4915;SDS011;70796;52.406;13.230;2023-08-01T12:55:36;4.77;;;2.80;;
4915;SDS011;70796;52.406;13.230;2023-08-01T12:58:03;3.73;;;2.80;;
4915;SDS011;70796;52.406;13.230;2023-08-01T13:00:29;2.87;;;2.53;;
4915;SDS011;70796;52.406;13.230;2023-08-01T13:02:56;4.97;;;2.70;;
4915;SDS011;70796;52.406;13.230;2023-08-01T13:05:23;4.73;;;2.90;;
4915;SDS011;70796;52.406;13.230;2023-08-01T13:07:49;3.90;;;2.67;;
4915;SDS011;70796;52.406;13.230;2023-08-01T13:10:15;4.90;;;2.90;;
4915;SDS011;70796;52.406;13.230;2023-08-01T13:12:42;3.00;;;2.37;;
4915;SDS011;70796;52.406;13.230;2023-08-01T13:15:09;3.73;;;2.50;;
4915;SDS011;70796;52.406;13.230;2023-08-01T13:17:42;6.73;;;3.17;;
4915;SDS011;70796;52.406;13.230;2023-08-01T13:20:09;5.20;;;2.70;;
4915;SDS011;70796;52.406;13.230;2023-08-01T13:22:36;4.50;;;2.83;;
4915;SDS011;70796;52.406;13.230;2023-08-01T13:25:03;6.40;;;2.73;;
4915;SDS011;70796;52.406;13.230;2023-08-01T13:27:30;8.00;;;3.10;;
4915;SDS011;70796;52.406;13.230;2023-08-01T13:29:56;3.60;;;2.60;;
4915;SDS011;70796;52.406;13.230;2023-08-01T13:32:23;4.47;;;2.93;;
4915;SDS011;70796;52.406;13.230;2023-08-01T13:34:50;5.13;;;3.20;;
4915;SDS011;70796;52.406;13.230;2023-08-01T13:37:16;3.87;;;2.87;;
4915;SDS011;70796;52.406;13.230;2023-08-01T13:39:42;5.57;;;2.90;;
4915;SDS011;70796;52.406;13.230;2023-08-01T13:42:09;3.70;;;2.53;;
4915;SDS011;70796;52.406;13.230;2023-08-01T13:44:36;5.97;;;3.00;;
4915;SDS011;70796;52.406;13.230;2023-08-01T13:47:02;5.93;;;3.00;;
4915;SDS011;70796;52.406;13.230;2023-08-01T13:49:30;4.87;;;2.87;;
4915;SDS011;70796;52.406;13.230;2023-08-01T13:51:56;4.00;;;2.50;;
4915;SDS011;70796;52.406;13.230;2023-08-01T13:54:23;6.70;;;3.00;;
4915;SDS011;70796;52.406;13.230;2023-08-01T13:56:49;5.40;;;3.17;;
4915;SDS011;70796;52.406;13.230;2023-08-01T13:59:16;5.83;;;2.80;;
4915;SDS011;70796;52.406;13.230;2023-08-01T14:01:43;4.03;;;2.90;;
4915;SDS011;70796;52.406;13.230;2023-08-01T14:04:09;5.13;;;2.93;;
4915;SDS011;70796;52.406;13.230;2023-08-01T14:06:36;6.20;;;2.93;;
4915;SDS011;70796;52.406;13.230;2023-08-01T14:09:02;3.80;;;2.50;;
4915;SDS011;70796;52.406;13.230;2023-08-01T14:11:30;4.73;;;2.70;;
4915;SDS011;70796;52.406;13.230;2023-08-01T14:13:57;4.60;;;3.07;;
4915;SDS011;70796;52.406;13.230;2023-08-01T14:16:23;4.60;;;2.70;;
4915;SDS011;70796;52.406;13.230;2023-08-01T14:18:50;4.10;;;2.73;;
4915;SDS011;70796;52.406;13.230;2023-08-01T14:21:16;6.83;;;3.70;;
4915;SDS011;70796;52.406;13.230;2023-08-01T14:23:43;2.73;;;2.53;;
4915;SDS011;70796;52.406;13.230;2023-08-01T14:26:09;2.80;;;2.40;;
4915;SDS011;70796;52.406;13.230;2023-08-01T14:28:36;3.50;;;2.60;;
4915;SDS011;70796;52.406;13.230;2023-08-01T14:31:03;2.90;;;2.40;;
4915;SDS011;70796;52.406;13.230;2023-08-01T14:33:30;4.43;;;2.60;;
4915;SDS011;70796;52.406;13.230;2023-08-01T14:35:56;4.53;;;2.07;;
4915;SDS011;70796;52.406;13.230;2023-08-01T14:38:23;4.27;;;2.60;;
4915;SDS011;70796;52.406;13.230;2023-08-01T14:40:49;7.00;;;2.23;;
4915;SDS011;70796;52.406;13.230;2023-08-01T14:43:35;4.03;;;2.40;;
4915;SDS011;70796;52.406;13.230;2023-08-01T14:46:02;4.50;;;2.17;;
4915;SDS011;70796;52.406;13.230;2023-08-01T14:48:29;3.20;;;2.33;;
4915;SDS011;70796;52.406;13.230;2023-08-01T14:50:55;2.50;;;2.30;;